EGJJ - Jersey Airport
Distance from station: E 5mi, 14km
Updated: 10/17/2017 12:20am
Nearby showers, Few clouds
Nearby showers, Few clouds
 Wind from ESE
Wind: ESE 5 mph , 7 km/h
Temperature: 55°F , 13°C
Dew Point: 50°F , 10°C
Humidity: 82%
Barometer: 30.15 inHg , 1021 hPa
Summary: Nearby Showers
Clouds: Few Clouds
Visibility: 6 miles , 10 km
Cloud details: Few Clouds 1500 ft
2017/10/17 07:20 EGJJ 170720Z 12004KT 9999 VCSH FEW015 13/10 Q1021